createdAt,value
2017-07-09T00:00:02.619Z,16.52
2017-07-09T00:05:02.792Z,16.39
2017-07-09T00:10:03.021Z,16.31
2017-07-09T00:15:02.216Z,16.26
2017-07-09T00:20:02.670Z,16.22
2017-07-09T00:25:02.901Z,16.15
2017-07-09T00:30:03.115Z,16.07
2017-07-09T00:35:02.313Z,16.01
2017-07-09T00:40:02.508Z,15.99
2017-07-09T00:45:02.707Z,15.9
2017-07-09T00:50:03.033Z,15.82
2017-07-09T00:55:02.263Z,15.73
2017-07-09T01:00:02.487Z,15.67
2017-07-09T01:05:02.819Z,15.49
2017-07-09T01:10:03.034Z,15.44
2017-07-09T01:15:02.263Z,15.37
2017-07-09T01:20:02.818Z,15.3
2017-07-09T01:25:03.039Z,15.25
2017-07-09T01:30:02.265Z,15.18
2017-07-09T01:35:03.066Z,15.18
2017-07-09T01:40:02.306Z,15.21
2017-07-09T01:45:02.495Z,15.21
2017-07-09T01:50:02.531Z,15.15
2017-07-09T01:55:02.751Z,15.09
2017-07-09T02:00:02.951Z,15.09
2017-07-09T02:05:02.861Z,15.06
2017-07-09T02:10:03.077Z,15.1
2017-07-09T02:15:02.257Z,15.15
2017-07-09T02:20:02.877Z,15.22
2017-07-09T02:25:03.123Z,15.25
2017-07-09T02:30:02.343Z,15.26
2017-07-09T02:35:02.977Z,15.28
2017-07-09T02:40:02.218Z,15.26
2017-07-09T02:45:02.461Z,15.26
2017-07-09T02:50:02.539Z,15.23
2017-07-09T02:55:02.741Z,15.21
2017-07-09T03:00:03.003Z,15.19
2017-07-09T03:05:02.659Z,15.12
2017-07-09T03:10:02.942Z,15.07
2017-07-09T03:15:02.136Z,15.02
2017-07-09T03:20:02.918Z,14.96
2017-07-09T03:25:03.112Z,14.99
2017-07-09T03:30:02.317Z,14.96
2017-07-09T03:35:02.821Z,15
2017-07-09T03:40:03.023Z,14.98
2017-07-09T03:45:02.240Z,15.03
2017-07-09T03:50:02.694Z,14.95
2017-07-09T03:55:02.917Z,14.87
2017-07-09T04:00:03.123Z,14.85
2017-07-09T04:05:02.769Z,14.88
2017-07-09T04:10:02.963Z,14.99
2017-07-09T04:15:02.138Z,15.11
2017-07-09T04:20:02.649Z,15.19
2017-07-09T04:25:02.942Z,15.17
2017-07-09T04:30:02.156Z,15.09
2017-07-09T04:35:02.754Z,14.96
2017-07-09T04:40:02.940Z,14.92
2017-07-09T04:45:02.140Z,14.96
2017-07-09T04:50:02.255Z,15
2017-07-09T04:55:02.453Z,15.04
2017-07-09T05:00:02.698Z,15.15
2017-07-09T05:05:02.355Z,15.18
2017-07-09T05:10:02.572Z,15.32
2017-07-09T05:15:02.774Z,15.37
2017-07-09T05:20:02.941Z,15.4
2017-07-09T05:25:02.170Z,15.4
2017-07-09T05:30:02.375Z,15.38
2017-07-09T05:35:03.008Z,15.32
2017-07-09T05:40:02.247Z,15.3
2017-07-09T05:45:02.466Z,15.31
2017-07-09T05:50:02.731Z,15.3
2017-07-09T05:55:02.927Z,15.32
2017-07-09T06:00:03.129Z,15.41
2017-07-09T06:05:02.364Z,15.49
2017-07-09T06:10:02.539Z,15.55
2017-07-09T06:15:02.716Z,15.6
2017-07-09T06:20:02.282Z,15.61
2017-07-09T06:25:02.479Z,15.66
2017-07-09T06:30:02.673Z,15.61
2017-07-09T06:35:02.960Z,15.62
2017-07-09T06:40:02.223Z,15.65
2017-07-09T06:45:02.423Z,15.7
2017-07-09T06:50:02.763Z,15.59
2017-07-09T06:55:02.990Z,15.61
2017-07-09T07:00:02.201Z,15.76
2017-07-09T07:05:02.873Z,15.81
2017-07-09T07:10:03.061Z,15.77
2017-07-09T07:15:02.301Z,15.78
2017-07-09T07:20:02.884Z,15.84
2017-07-09T07:25:03.070Z,15.96
2017-07-09T07:30:02.300Z,16.05
2017-07-09T07:35:02.599Z,16.11
2017-07-09T07:40:02.803Z,16.12
2017-07-09T07:45:02.994Z,16.13
2017-07-09T07:50:02.823Z,16.22
2017-07-09T07:55:03.008Z,16.27
2017-07-09T08:00:02.242Z,16.29
2017-07-09T08:05:02.281Z,16.33
2017-07-09T08:10:02.521Z,16.37
2017-07-09T08:15:02.685Z,16.42
2017-07-09T08:20:02.186Z,16.46
2017-07-09T08:25:02.391Z,16.51
2017-07-09T08:30:02.558Z,16.6
2017-07-09T08:35:02.748Z,16.75
2017-07-09T08:40:02.961Z,17.26
2017-07-09T08:45:02.188Z,17.83
2017-07-09T08:50:02.385Z,17.78
2017-07-09T08:55:02.607Z,17.6
2017-07-09T09:00:02.792Z,17.63
2017-07-09T09:05:02.478Z,17.7
2017-07-09T09:10:02.691Z,18.42
2017-07-09T09:15:02.933Z,18.98
2017-07-09T09:20:03.016Z,19.45
2017-07-09T09:25:02.222Z,19.53
2017-07-09T09:30:02.417Z,19.1
2017-07-09T09:35:02.671Z,19.04
2017-07-09T09:40:02.856Z,19.8
2017-07-09T09:45:03.099Z,19.81
2017-07-09T09:50:02.830Z,20.06
2017-07-09T09:55:03.086Z,20.13
2017-07-09T10:00:02.304Z,20.03
2017-07-09T10:05:03.073Z,20.33
2017-07-09T10:10:02.263Z,20.47
2017-07-09T10:15:02.488Z,20.65
2017-07-09T10:20:03.016Z,21.5
2017-07-09T10:25:02.227Z,21.52
2017-07-09T10:30:02.494Z,21.08
2017-07-09T10:35:02.174Z,21.68
2017-07-09T10:40:02.400Z,21.84
2017-07-09T10:45:02.621Z,22.33
2017-07-09T10:50:02.722Z,22.05
2017-07-09T10:55:02.916Z,21.98
2017-07-09T11:00:03.113Z,22.36
2017-07-09T11:05:02.423Z,22.42
2017-07-09T11:10:02.653Z,22.4
2017-07-09T11:15:02.828Z,21.66
2017-07-09T11:20:02.468Z,21.52
2017-07-09T11:25:02.712Z,21.6
2017-07-09T11:30:02.932Z,21.9
2017-07-09T11:35:02.155Z,21.89
2017-07-09T11:40:02.377Z,21.98
2017-07-09T11:45:02.590Z,22.08
2017-07-09T11:50:02.837Z,22.02
2017-07-09T11:55:03.064Z,22.29
2017-07-09T12:00:02.286Z,22.41
2017-07-09T12:05:02.905Z,22.38
2017-07-09T12:10:03.135Z,22.24
2017-07-09T12:15:02.329Z,22.04
2017-07-09T12:20:03.119Z,21.97
2017-07-09T12:25:02.337Z,22.18
2017-07-09T12:30:02.534Z,22.25
2017-07-09T12:35:02.495Z,22.31
2017-07-09T12:40:02.754Z,22.49
2017-07-09T12:45:02.966Z,22.55
2017-07-09T12:50:02.411Z,22.71
2017-07-09T12:55:02.615Z,22.87
2017-07-09T13:00:02.815Z,23.15
2017-07-09T13:05:02.651Z,23.18
2017-07-09T13:10:02.838Z,23.16
2017-07-09T13:15:03.041Z,23.34
2017-07-09T13:20:02.208Z,23.36
2017-07-09T13:25:02.412Z,23.17
2017-07-09T13:30:02.624Z,23.28
2017-07-09T13:35:02.878Z,23.21
2017-07-09T13:40:03.122Z,23.29
2017-07-09T13:45:02.374Z,23.21
2017-07-09T13:50:03.087Z,23.4
2017-07-09T13:55:02.272Z,23.52
2017-07-09T14:00:02.518Z,23.6
2017-07-09T14:05:02.363Z,23.35
2017-07-09T14:10:02.578Z,23.16
2017-07-09T14:15:02.751Z,23.34
2017-07-09T14:20:02.893Z,23.61
2017-07-09T14:25:03.110Z,23.8
2017-07-09T14:30:02.302Z,23.65
2017-07-09T14:35:02.529Z,23.72
2017-07-09T14:40:02.787Z,23.9
2017-07-09T14:45:03.007Z,23.89
2017-07-09T14:50:02.450Z,23.86
2017-07-09T14:55:02.666Z,24.03
2017-07-09T15:00:02.869Z,23.97
2017-07-09T15:05:02.757Z,23.86
2017-07-09T15:10:02.959Z,23.83
2017-07-09T15:15:02.121Z,23.75
2017-07-09T15:20:02.390Z,23.59
2017-07-09T15:25:02.595Z,23.35
2017-07-09T15:30:02.826Z,23.17
2017-07-09T15:35:03.050Z,23.25
2017-07-09T15:40:02.232Z,23.51
2017-07-09T15:45:02.451Z,23.82
2017-07-09T15:50:02.567Z,24.02
2017-07-09T15:55:02.766Z,24.03
2017-07-09T16:00:02.969Z,24.21
2017-07-09T16:05:03.042Z,24.09
2017-07-09T16:10:02.247Z,23.82
2017-07-09T16:15:02.459Z,23.5
2017-07-09T16:20:02.210Z,23.32
2017-07-09T16:25:02.422Z,23.12
2017-07-09T16:30:02.613Z,23.14
2017-07-09T16:35:02.430Z,23.27
2017-07-09T16:40:02.639Z,23.36
2017-07-09T16:45:02.883Z,23.42
2017-07-09T16:50:02.153Z,23.47
2017-07-09T16:55:02.368Z,23.47
2017-07-09T17:00:02.605Z,23.41
2017-07-09T17:05:02.909Z,23.26
2017-07-09T17:10:03.143Z,23.1
2017-07-09T17:15:02.337Z,23.01
2017-07-09T17:20:02.666Z,22.95
2017-07-09T17:25:02.860Z,22.86
2017-07-09T17:30:03.064Z,22.83
2017-07-09T17:35:02.252Z,22.81
2017-07-09T17:40:02.504Z,22.78
2017-07-09T17:45:02.694Z,22.76
2017-07-09T17:50:02.908Z,22.66
2017-07-09T17:55:03.109Z,22.54
2017-07-09T18:00:02.311Z,22.32
2017-07-09T18:05:02.385Z,22.16
2017-07-09T18:10:02.591Z,22.07
2017-07-09T18:15:02.800Z,21.97
2017-07-09T18:20:02.958Z,21.96
2017-07-09T18:25:02.162Z,21.95
2017-07-09T18:30:02.406Z,21.87
2017-07-09T18:35:02.771Z,21.74
2017-07-09T18:40:03.002Z,21.59
2017-07-09T18:45:02.211Z,21.47
2017-07-09T18:50:02.434Z,21.31
2017-07-09T18:55:02.654Z,21.16
2017-07-09T19:00:02.873Z,21.05
2017-07-09T19:05:02.484Z,20.91
2017-07-09T19:10:02.721Z,20.76
2017-07-09T19:15:02.899Z,20.68
2017-07-09T19:20:02.916Z,20.56
2017-07-09T19:25:03.123Z,20.47
2017-07-09T19:30:02.339Z,20.39
2017-07-09T19:35:02.530Z,20.22
2017-07-09T19:40:02.743Z,20.1
2017-07-09T19:45:03.024Z,19.99
2017-07-09T19:50:02.238Z,19.91
2017-07-09T19:55:02.450Z,19.8
2017-07-09T20:00:02.619Z,19.7
2017-07-09T20:05:02.190Z,19.57
2017-07-09T20:10:02.429Z,19.46
2017-07-09T20:15:02.673Z,19.38
2017-07-09T20:20:03.115Z,19.29
2017-07-09T20:25:02.323Z,19.21
2017-07-09T20:30:02.549Z,19.12
2017-07-09T20:35:02.866Z,19.01
2017-07-09T20:40:03.067Z,18.94
2017-07-09T20:45:02.307Z,18.85
2017-07-09T20:50:02.838Z,18.74
2017-07-09T20:55:03.114Z,18.66
2017-07-09T21:00:02.345Z,18.57
2017-07-09T21:05:03.075Z,18.5
2017-07-09T21:10:02.315Z,18.41
2017-07-09T21:15:02.505Z,18.35
2017-07-09T21:20:03.008Z,18.26
2017-07-09T21:25:02.235Z,18.21
2017-07-09T21:30:02.466Z,18.12
2017-07-09T21:35:02.777Z,18.08
2017-07-09T21:40:02.957Z,18.02
2017-07-09T21:45:02.180Z,17.98
2017-07-09T21:50:02.382Z,17.93
2017-07-09T21:55:02.584Z,17.9
2017-07-09T22:00:02.910Z,17.87
2017-07-09T22:05:02.193Z,17.85
2017-07-09T22:10:02.401Z,17.84
2017-07-09T22:15:02.611Z,17.87
2017-07-09T22:20:02.950Z,17.88
2017-07-09T22:25:02.200Z,17.89
2017-07-09T22:30:02.412Z,17.87
2017-07-09T22:35:02.458Z,17.84
2017-07-09T22:40:02.696Z,17.81
2017-07-09T22:45:02.906Z,17.78
2017-07-09T22:50:02.872Z,17.75
2017-07-09T22:55:03.084Z,17.75
2017-07-09T23:00:02.292Z,17.73
2017-07-09T23:05:02.559Z,17.72
2017-07-09T23:10:02.759Z,17.68
2017-07-09T23:15:02.969Z,17.68
2017-07-09T23:20:02.482Z,17.66
2017-07-09T23:25:02.693Z,17.67
2017-07-09T23:30:02.913Z,17.7
2017-07-09T23:35:02.401Z,17.72
2017-07-09T23:40:02.589Z,17.73
2017-07-09T23:45:02.790Z,17.73
2017-07-09T23:50:02.193Z,17.7
2017-07-09T23:55:02.389Z,17.72
